Time;durP1;ratioP1;P1;durP2;ratioP2;P2;SDS_P1;SDS_P2;PMS_P1;PMS_P2;Temp;Humidity;BMP_temperature;BMP_pressure;BME280_temperature;BME280_humidity;BME280_pressure;Samples;Min_cycle;Max_cycle;Signal;HPM_P1;HPM_P2
2021/12/06 00:01:30;;;;;;;84.47;37.72;;;2.90;99.90;;;;;;5067573;28;20023;-80
2021/12/06 00:04:12;;;;;;;95.40;36.55;;;2.90;99.90;;;;;;5055653;28;20037;-80
2021/12/06 00:06:40;;;;;;;74.00;33.85;;;2.90;99.90;;;;;;5058985;28;20432;-80
2021/12/06 00:09:15;;;;;;;71.55;33.67;;;2.90;99.90;;;;;;5054732;28;20032;-80
2021/12/06 00:11:41;;;;;;;73.38;32.58;;;2.80;99.90;;;;;;5069162;28;20024;-80
2021/12/06 00:14:09;;;;;;;84.63;37.70;;;2.90;99.90;;;;;;5057431;28;20053;-80
2021/12/06 00:16:35;;;;;;;72.22;33.50;;;2.90;99.90;;;;;;5070941;28;20021;-80
2021/12/06 00:19:03;;;;;;;77.10;34.65;;;2.90;99.90;;;;;;5067988;28;20360;-80
2021/12/06 00:21:29;;;;;;;72.80;32.15;;;2.80;99.90;;;;;;5071442;28;20051;-80
2021/12/06 00:23:58;;;;;;;71.38;32.75;;;2.80;99.90;;;;;;5056956;28;20048;-80
2021/12/06 00:26:23;;;;;;;86.65;37.88;;;2.80;99.90;;;;;;5058650;28;20035;-80
2021/12/06 00:28:56;;;;;;;89.38;38.47;;;2.80;99.90;;;;;;5054964;28;20490;-80
2021/12/06 00:31:23;;;;;;;88.30;37.70;;;2.80;99.90;;;;;;5047420;28;20032;-80
2021/12/06 00:33:58;;;;;;;98.65;39.65;;;2.80;99.90;;;;;;5062006;28;20033;-80
2021/12/06 00:36:28;;;;;;;89.20;38.58;;;2.80;99.90;;;;;;5064773;28;20031;-80
2021/12/06 00:38:54;;;;;;;90.35;37.33;;;2.80;99.90;;;;;;5062648;28;20074;-80
2021/12/06 00:41:20;;;;;;;84.93;35.80;;;2.80;99.90;;;;;;5056928;28;20503;-80
2021/12/06 00:43:46;;;;;;;101.57;39.53;;;2.80;99.90;;;;;;5055456;28;20067;-80
2021/12/06 00:46:11;;;;;;;91.18;37.35;;;2.80;99.90;;;;;;5054519;28;20079;-80
2021/12/06 00:48:38;;;;;;;80.05;34.40;;;2.80;99.90;;;;;;5055685;28;20083;-80
2021/12/06 00:51:03;;;;;;;85.68;33.83;;;2.80;99.90;;;;;;5054278;28;20036;-80
2021/12/06 00:53:30;;;;;;;81.07;33.50;;;2.80;99.90;;;;;;5067464;28;20017;-80
2021/12/06 00:55:56;;;;;;;72.15;29.77;;;2.70;99.90;;;;;;5055451;28;20127;-80
2021/12/06 00:58:22;;;;;;;78.78;30.77;;;2.70;99.90;;;;;;5074489;28;20484;-80
2021/12/06 01:00:52;;;;;;;70.00;27.27;;;2.70;99.90;;;;;;5074432;28;20086;-80
2021/12/06 01:03:27;;;;;;;76.97;29.50;;;2.70;99.90;;;;;;5054424;28;20029;-80
2021/12/06 01:05:57;;;;;;;83.05;34.53;;;2.70;99.90;;;;;;5063712;28;20509;-80
2021/12/06 01:08:23;;;;;;;90.43;36.58;;;2.80;99.90;;;;;;5055284;28;20037;-80
2021/12/06 01:10:49;;;;;;;76.30;31.08;;;2.80;99.90;;;;;;5062099;28;20489;-80
2021/12/06 01:13:15;;;;;;;67.18;28.58;;;2.80;99.90;;;;;;5070638;28;20052;-80
2021/12/06 01:15:41;;;;;;;63.65;27.92;;;2.70;99.90;;;;;;5048788;28;20074;-80
2021/12/06 01:18:09;;;;;;;78.43;30.40;;;2.70;99.90;;;;;;5074303;28;20017;-80
2021/12/06 01:20:47;;;;;;;76.35;29.05;;;2.70;99.90;;;;;;5063587;28;20021;-80
2021/12/06 01:23:15;;;;;;;73.93;27.85;;;2.70;99.90;;;;;;5062559;28;20025;-80
2021/12/06 01:41:21;;;;;;;71.30;29.00;;;2.70;99.90;;;;;;5070077;28;20024;-80
2021/12/06 01:44:02;;;;;;;65.60;25.77;;;2.70;99.90;;;;;;5062195;28;20119;-80
2021/12/06 01:46:30;;;;;;;70.85;29.92;;;2.70;99.90;;;;;;5073091;28;20465;-80
2021/12/06 01:48:56;;;;;;;70.47;27.80;;;2.70;99.90;;;;;;5062187;28;20029;-80
2021/12/06 01:51:23;;;;;;;92.65;27.15;;;2.80;99.90;;;;;;5053268;28;20087;-80
2021/12/06 01:53:48;;;;;;;190.60;28.05;;;2.70;99.90;;;;;;5057619;28;20036;-80
2021/12/06 01:56:14;;;;;;;81.13;31.70;;;2.70;99.90;;;;;;5054972;28;20163;-80
2021/12/06 01:58:41;;;;;;;73.47;29.90;;;2.70;99.90;;;;;;5054788;28;20099;-80
2021/12/06 02:01:07;;;;;;;79.55;31.92;;;2.70;99.90;;;;;;5060404;28;20066;-80
2021/12/06 02:03:32;;;;;;;77.53;32.00;;;2.70;99.90;;;;;;5067040;28;20044;-80
2021/12/06 02:05:58;;;;;;;74.55;28.85;;;2.70;99.90;;;;;;5065366;28;20036;-80
2021/12/06 02:08:27;;;;;;;144.68;31.27;;;2.60;99.90;;;;;;5066435;28;20070;-80
2021/12/06 02:11:00;;;;;;;73.10;28.77;;;2.70;99.90;;;;;;5063124;28;20068;-80
2021/12/06 02:13:33;;;;;;;159.02;30.00;;;2.60;99.90;;;;;;5055666;28;20029;-80
2021/12/06 02:16:03;;;;;;;81.15;29.42;;;2.50;99.90;;;;;;5065472;28;20029;-80
2021/12/06 02:18:49;;;;;;;74.60;28.02;;;2.50;99.90;;;;;;5071929;28;20029;-80
2021/12/06 02:21:38;;;;;;;79.30;31.45;;;2.60;99.90;;;;;;5072399;28;20485;-80
2021/12/06 02:24:08;;;;;;;77.05;29.27;;;2.50;99.90;;;;;;5072278;28;20029;-80
2021/12/06 02:26:41;;;;;;;84.60;32.13;;;2.50;99.90;;;;;;5073281;28;20025;-80
2021/12/06 02:29:08;;;;;;;131.32;33.58;;;2.50;99.90;;;;;;5072068;28;20036;-80
2021/12/06 02:31:35;;;;;;;79.28;32.45;;;2.50;99.90;;;;;;5065462;28;20025;-80
2021/12/06 02:34:00;;;;;;;76.20;34.42;;;2.50;99.90;;;;;;5052442;28;20025;-80
2021/12/06 02:36:27;;;;;;;107.82;42.22;;;2.50;99.90;;;;;;5053016;28;20400;-80
2021/12/06 02:38:54;;;;;;;114.40;42.97;;;2.50;99.90;;;;;;5065328;28;20040;-80
2021/12/06 02:41:26;;;;;;;122.05;47.00;;;2.50;99.90;;;;;;5072517;28;20024;-80
2021/12/06 02:43:53;;;;;;;128.85;47.67;;;2.50;99.90;;;;;;5055737;28;20029;-80
2021/12/06 02:46:22;;;;;;;223.55;47.60;;;2.50;99.90;;;;;;5052758;28;20025;-80
2021/12/06 02:48:49;;;;;;;120.20;46.17;;;2.40;99.90;;;;;;5054310;28;20061;-79
2021/12/06 02:51:16;;;;;;;132.38;47.72;;;2.40;99.90;;;;;;5058784;28;20024;-80
2021/12/06 02:53:42;;;;;;;120.45;43.90;;;2.40;99.90;;;;;;5062102;28;20036;-80
2021/12/06 02:58:59;;;;;;;119.80;44.50;;;2.30;99.90;;;;;;5059924;28;20145;-80
2021/12/06 03:01:44;;;;;;;94.50;37.83;;;2.30;99.90;;;;;;5062383;28;20025;-79
2021/12/06 03:04:10;;;;;;;106.15;39.55;;;2.30;99.90;;;;;;5052460;28;20457;-80
2021/12/06 03:06:40;;;;;;;111.75;43.38;;;2.20;99.90;;;;;;5052742;28;20065;-80
2021/12/06 03:09:11;;;;;;;114.00;41.83;;;2.30;99.90;;;;;;5068037;28;20031;-80
2021/12/06 03:11:39;;;;;;;109.22;41.55;;;2.30;99.90;;;;;;5072111;28;20488;-80
2021/12/06 03:14:07;;;;;;;106.00;41.75;;;2.30;99.90;;;;;;5072228;28;20069;-80
2021/12/06 03:16:33;;;;;;;113.00;42.70;;;2.30;99.90;;;;;;5053397;28;20369;-80
2021/12/06 03:19:00;;;;;;;111.95;42.72;;;2.20;99.90;;;;;;5064957;28;20029;-80
2021/12/06 03:21:27;;;;;;;116.25;42.80;;;2.20;99.90;;;;;;5056455;28;20024;-80
2021/12/06 03:23:55;;;;;;;106.90;42.40;;;2.20;99.90;;;;;;5053397;28;20020;-80
2021/12/06 03:26:22;;;;;;;119.07;43.67;;;2.20;99.90;;;;;;5076027;28;20024;-80
2021/12/06 03:28:48;;;;;;;119.07;44.60;;;2.20;99.90;;;;;;5062460;28;20036;-80
2021/12/06 03:31:15;;;;;;;122.70;45.90;;;2.20;99.90;;;;;;5071502;28;20033;-80
2021/12/06 03:33:43;;;;;;;129.23;48.80;;;2.20;99.90;;;;;;5063365;28;20406;-80
2021/12/06 03:36:11;;;;;;;114.43;46.15;;;2.20;99.90;;;;;;5067399;28;20040;-80
2021/12/06 03:38:37;;;;;;;123.55;46.95;;;2.10;99.90;;;;;;5075925;28;20025;-80
2021/12/06 03:41:05;;;;;;;126.82;49.03;;;2.10;99.90;;;;;;5073202;28;20053;-80
2021/12/06 03:43:31;;;;;;;112.43;47.53;;;2.10;99.90;;;;;;5061034;28;20021;-80
2021/12/06 03:45:59;;;;;;;108.05;43.17;;;2.10;99.90;;;;;;5075889;28;20097;-80
2021/12/06 03:48:25;;;;;;;105.50;45.28;;;2.10;99.90;;;;;;5062624;28;20036;-80
2021/12/06 03:50:53;;;;;;;104.57;45.45;;;2.10;99.90;;;;;;5055284;28;20037;-80
2021/12/06 03:53:19;;;;;;;114.22;47.78;;;2.10;99.90;;;;;;5055878;28;20025;-80
2021/12/06 03:55:45;;;;;;;110.78;45.60;;;2.10;99.90;;;;;;5055371;28;20099;-80
2021/12/06 03:58:14;;;;;;;108.18;45.63;;;2.10;99.90;;;;;;5061811;28;20028;-80
2021/12/06 04:00:39;;;;;;;94.45;43.42;;;2.00;99.90;;;;;;5074960;28;20023;-80
2021/12/06 04:03:06;;;;;;;107.10;44.92;;;2.00;99.90;;;;;;5062232;28;20025;-80
2021/12/06 04:05:31;;;;;;;101.57;42.42;;;2.00;99.90;;;;;;5055430;28;20029;-80
2021/12/06 04:07:57;;;;;;;108.25;47.88;;;2.00;99.90;;;;;;5055455;28;20024;-80
2021/12/06 04:10:25;;;;;;;104.30;45.67;;;2.00;99.90;;;;;;5064728;28;20381;-80
2021/12/06 04:12:58;;;;;;;110.35;47.28;;;2.00;99.90;;;;;;5055428;28;20041;-80
2021/12/06 04:15:28;;;;;;;100.55;42.65;;;2.00;99.90;;;;;;5058712;28;20017;-80
2021/12/06 04:17:55;;;;;;;103.60;44.25;;;2.00;99.90;;;;;;5083169;28;20028;-80
2021/12/06 04:20:20;;;;;;;94.25;41.78;;;2.00;99.90;;;;;;5071884;28;20029;-80
2021/12/06 04:22:47;;;;;;;112.00;47.10;;;2.00;99.90;;;;;;5057296;28;20028;-80
2021/12/06 04:25:15;;;;;;;103.65;43.83;;;2.00;99.90;;;;;;5066172;28;20365;-80
2021/12/06 04:27:42;;;;;;;92.18;42.95;;;2.00;99.90;;;;;;5065134;28;20043;-80
2021/12/06 04:30:10;;;;;;;97.63;43.33;;;2.00;99.90;;;;;;5091778;28;20016;-80
2021/12/06 04:32:37;;;;;;;107.63;45.67;;;2.00;99.90;;;;;;5064367;28;20031;-80
2021/12/06 04:35:04;;;;;;;93.25;41.83;;;1.90;99.90;;;;;;5074644;28;20055;-80
2021/12/06 04:37:29;;;;;;;98.22;43.88;;;1.90;99.90;;;;;;5074127;28;20485;-80
2021/12/06 04:39:55;;;;;;;97.10;44.15;;;1.90;99.90;;;;;;5091430;28;20073;-80
2021/12/06 04:42:21;;;;;;;104.20;43.92;;;1.90;99.90;;;;;;5074355;28;20020;-80
2021/12/06 04:44:47;;;;;;;106.72;48.35;;;1.90;99.90;;;;;;5075165;28;20465;-80
2021/12/06 04:47:15;;;;;;;104.80;45.92;;;1.90;99.90;;;;;;5074699;28;20833;-80
2021/12/06 04:49:40;;;;;;;105.00;46.45;;;1.90;99.90;;;;;;5074300;28;20081;-79
2021/12/06 04:52:09;;;;;;;105.43;49.53;;;1.90;99.90;;;;;;5074603;28;20024;-80
2021/12/06 04:54:39;;;;;;;94.05;44.30;;;1.80;99.90;;;;;;5074356;28;20032;-80
2021/12/06 04:57:12;;;;;;;98.47;45.75;;;1.80;99.90;;;;;;5074504;28;20380;-80
2021/12/06 04:59:47;;;;;;;101.53;46.28;;;1.80;99.90;;;;;;5052097;28;20070;-80
2021/12/06 05:02:27;;;;;;;97.18;45.50;;;1.80;99.90;;;;;;5054435;28;20171;-80
2021/12/06 05:04:57;;;;;;;90.18;44.53;;;1.80;99.90;;;;;;5060057;28;20029;-80
2021/12/06 05:07:32;;;;;;;97.63;44.42;;;1.70;99.90;;;;;;5074686;28;20035;-80
2021/12/06 05:09:58;;;;;;;93.65;44.63;;;1.70;99.90;;;;;;5074189;28;20030;-80
2021/12/06 05:12:29;;;;;;;92.32;42.95;;;1.70;99.90;;;;;;5056300;28;20036;-80
2021/12/06 05:14:55;;;;;;;94.38;42.83;;;1.70;99.90;;;;;;5074396;28;20051;-80
2021/12/06 05:17:20;;;;;;;90.80;42.75;;;1.70;99.90;;;;;;5056106;28;20052;-79
2021/12/06 05:19:46;;;;;;;97.22;44.60;;;1.70;99.90;;;;;;5074090;28;20027;-79
2021/12/06 05:22:13;;;;;;;85.40;42.72;;;1.70;99.90;;;;;;5073925;28;20029;-79
2021/12/06 05:24:39;;;;;;;85.88;41.70;;;1.70;99.90;;;;;;5074076;28;20373;-79
2021/12/06 05:27:05;;;;;;;87.72;41.78;;;1.60;99.90;;;;;;5069297;28;20029;-79
2021/12/06 05:29:32;;;;;;;79.57;38.80;;;1.60;99.90;;;;;;5073565;28;20035;-80
2021/12/06 05:32:00;;;;;;;77.18;38.40;;;1.60;99.90;;;;;;5069529;28;20021;-80
2021/12/06 05:34:35;;;;;;;76.00;36.25;;;1.60;99.90;;;;;;5053525;28;20098;-80
2021/12/06 05:37:00;;;;;;;72.65;36.15;;;1.60;99.90;;;;;;5064961;28;20037;-80
2021/12/06 05:39:30;;;;;;;69.82;34.50;;;1.60;99.90;;;;;;5073782;28;20025;-79
2021/12/06 05:42:08;;;;;;;70.10;34.88;;;1.60;99.90;;;;;;5073186;28;20048;-80
2021/12/06 05:44:35;;;;;;;75.57;37.90;;;1.70;99.90;;;;;;5073680;28;20415;-80
2021/12/06 05:47:00;;;;;;;64.45;33.88;;;1.70;99.90;;;;;;5073449;28;20025;-80
2021/12/06 05:49:27;;;;;;;69.05;34.15;;;1.70;99.90;;;;;;5073349;28;20119;-79
2021/12/06 05:51:53;;;;;;;74.78;36.17;;;1.60;99.90;;;;;;5072762;28;20804;-80
2021/12/06 05:54:20;;;;;;;70.97;34.88;;;1.70;99.90;;;;;;5073153;28;20056;-80
2021/12/06 05:56:49;;;;;;;69.78;34.50;;;1.70;99.90;;;;;;5073241;28;20048;-80
2021/12/06 05:59:15;;;;;;;66.53;34.55;;;1.60;99.90;;;;;;5055259;28;20035;-79
2021/12/06 06:01:41;;;;;;;67.35;34.20;;;1.70;99.90;;;;;;5073147;28;20017;-79
2021/12/06 06:04:09;;;;;;;76.05;35.47;;;1.60;99.90;;;;;;5072874;28;20025;-80
2021/12/06 06:06:36;;;;;;;71.95;35.92;;;1.60;99.90;;;;;;5073203;28;20028;-80
2021/12/06 06:09:06;;;;;;;66.72;33.83;;;1.70;99.90;;;;;;5072405;28;20021;-80
2021/12/06 06:11:35;;;;;;;72.95;36.45;;;1.60;99.90;;;;;;5062934;28;20069;-80
2021/12/06 06:14:05;;;;;;;71.45;34.72;;;1.70;99.90;;;;;;5071199;28;20024;-79
2021/12/06 06:16:35;;;;;;;68.30;34.83;;;1.60;99.90;;;;;;5069655;28;20032;-80
2021/12/06 06:19:04;;;;;;;78.90;39.08;;;1.60;99.90;;;;;;5063981;28;20151;-80
2021/12/06 06:21:30;;;;;;;81.63;41.40;;;1.60;99.90;;;;;;5072586;28;20017;-80
2021/12/06 06:23:56;;;;;;;80.65;40.33;;;1.60;99.90;;;;;;5053739;28;20021;-80
2021/12/06 06:26:21;;;;;;;83.63;43.08;;;1.60;99.90;;;;;;5071960;28;20085;-80
2021/12/06 06:28:47;;;;;;;79.15;39.47;;;1.60;99.90;;;;;;5068154;28;20021;-80
2021/12/06 06:31:13;;;;;;;73.38;39.15;;;1.60;99.90;;;;;;5067231;28;20071;-80
2021/12/06 06:33:41;;;;;;;93.00;42.95;;;1.60;99.90;;;;;;5057521;28;20025;-80
2021/12/06 06:36:07;;;;;;;80.07;41.05;;;1.50;99.90;;;;;;5052755;28;20028;-80
2021/12/06 06:38:33;;;;;;;78.82;40.47;;;1.50;99.90;;;;;;5066359;28;20016;-79
2021/12/06 06:40:59;;;;;;;79.95;39.25;;;1.50;99.90;;;;;;5072774;28;20471;-79
2021/12/06 06:43:27;;;;;;;78.20;40.38;;;1.50;99.90;;;;;;5072620;28;20013;-80
2021/12/06 06:45:53;;;;;;;76.47;38.90;;;1.50;99.90;;;;;;5072678;28;20029;-80
2021/12/06 06:48:19;;;;;;;70.43;37.08;;;1.50;99.90;;;;;;5038860;28;20392;-79
2021/12/06 06:50:45;;;;;;;73.38;35.70;;;1.60;99.90;;;;;;5049865;28;20032;-80
2021/12/06 06:53:10;;;;;;;71.72;36.05;;;1.50;99.90;;;;;;5054993;28;20541;-79
2021/12/06 06:55:36;;;;;;;76.28;37.38;;;1.60;99.90;;;;;;5072413;28;20048;-79
2021/12/06 06:58:02;;;;;;;76.55;37.78;;;1.60;99.90;;;;;;5071890;28;20149;-80
2021/12/06 07:00:37;;;;;;;77.47;37.95;;;1.60;99.90;;;;;;5063964;28;20034;-80
2021/12/06 07:03:04;;;;;;;76.93;38.83;;;1.60;99.90;;;;;;5052235;28;20028;-80
2021/12/06 07:05:31;;;;;;;70.57;36.08;;;1.60;99.90;;;;;;5060674;28;20033;-80
2021/12/06 07:07:57;;;;;;;78.32;38.85;;;1.60;99.90;;;;;;5035068;28;20024;-79
2021/12/06 07:10:23;;;;;;;84.45;41.17;;;1.60;99.90;;;;;;5069138;28;20104;-80
2021/12/06 07:12:51;;;;;;;99.97;46.88;;;1.60;99.90;;;;;;5071538;28;20160;-80
2021/12/06 07:15:26;;;;;;;94.65;45.67;;;1.60;99.90;;;;;;5068338;28;20024;-80
2021/12/06 07:17:53;;;;;;;84.93;40.70;;;1.60;99.90;;;;;;5069501;28;20400;-80
2021/12/06 07:20:19;;;;;;;94.85;47.22;;;1.60;99.90;;;;;;5056365;28;20033;-79
2021/12/06 07:22:47;;;;;;;105.60;48.58;;;1.50;99.90;;;;;;5052533;28;20021;-79
2021/12/06 07:25:14;;;;;;;108.70;48.90;;;1.50;99.90;;;;;;5054407;28;20018;-79
2021/12/06 07:27:40;;;;;;;107.07;47.92;;;1.50;99.90;;;;;;5070777;28;20036;-79
2021/12/06 07:30:07;;;;;;;116.70;50.30;;;1.40;99.90;;;;;;5055875;28;20029;-79
2021/12/06 07:32:33;;;;;;;113.82;47.60;;;1.40;99.90;;;;;;5069357;28;20020;-79
2021/12/06 07:35:00;;;;;;;111.47;48.08;;;1.40;99.90;;;;;;5062583;28;20115;-79
2021/12/06 07:37:25;;;;;;;111.70;46.78;;;1.40;99.90;;;;;;5068130;28;20461;-79
2021/12/06 07:39:51;;;;;;;97.82;43.90;;;1.40;99.90;;;;;;5073333;28;20028;-79
2021/12/06 07:42:17;;;;;;;105.18;44.78;;;1.40;99.90;;;;;;5062474;28;20338;-79
2021/12/06 07:44:43;;;;;;;103.43;44.97;;;1.40;99.90;;;;;;5045790;28;20029;-79
2021/12/06 07:47:11;;;;;;;104.25;44.72;;;1.40;99.90;;;;;;5057583;28;20031;-79
2021/12/06 07:49:39;;;;;;;109.88;46.53;;;1.40;99.90;;;;;;5091993;28;20062;-79
2021/12/06 07:52:05;;;;;;;105.65;45.65;;;1.50;99.90;;;;;;5073990;28;20028;-79
2021/12/06 07:54:32;;;;;;;106.53;44.10;;;1.50;99.90;;;;;;5091878;28;20021;-79
2021/12/06 07:56:58;;;;;;;124.07;51.88;;;1.50;99.90;;;;;;5092179;28;20117;-79
2021/12/06 07:59:24;;;;;;;103.60;45.28;;;1.50;99.90;;;;;;5071715;28;20483;-79
2021/12/06 08:01:49;;;;;;;104.45;46.45;;;1.50;99.90;;;;;;5071896;28;20025;-79
2021/12/06 08:04:15;;;;;;;107.18;43.35;;;1.40;99.90;;;;;;5060596;28;20028;-79
2021/12/06 08:06:41;;;;;;;108.13;45.20;;;1.50;99.90;;;;;;5091285;28;20111;-79
2021/12/06 08:09:07;;;;;;;95.07;41.78;;;1.50;99.90;;;;;;5095766;28;20070;-79
2021/12/06 08:11:33;;;;;;;98.07;39.72;;;1.50;99.90;;;;;;5095562;28;20063;-79
2021/12/06 08:14:01;;;;;;;97.75;41.38;;;1.50;99.90;;;;;;5095543;28;20024;-79
2021/12/06 08:16:31;;;;;;;92.47;40.10;;;1.50;99.90;;;;;;5095441;28;20134;-79
2021/12/06 08:18:59;;;;;;;97.10;40.45;;;1.50;99.90;;;;;;5095273;28;20013;-79
2021/12/06 08:21:27;;;;;;;100.60;40.70;;;1.50;99.90;;;;;;5095226;28;20024;-79
2021/12/06 08:23:54;;;;;;;100.70;42.40;;;1.60;99.90;;;;;;5095469;28;20012;-79
2021/12/06 08:26:24;;;;;;;112.10;45.03;;;1.60;99.90;;;;;;5095442;28;20472;-79
2021/12/06 08:28:51;;;;;;;102.20;40.28;;;1.60;99.90;;;;;;5095203;28;20484;-79
2021/12/06 08:31:22;;;;;;;94.85;40.47;;;1.60;99.90;;;;;;5095209;28;20063;-79
2021/12/06 08:33:53;;;;;;;106.35;42.00;;;1.60;99.90;;;;;;5094848;28;20020;-79
2021/12/06 08:36:20;;;;;;;91.70;38.17;;;1.60;99.90;;;;;;5094965;28;20020;-79
2021/12/06 08:38:46;;;;;;;113.63;45.10;;;1.60;99.90;;;;;;5094284;28;20024;-79
2021/12/06 08:41:15;;;;;;;107.88;42.55;;;1.60;99.90;;;;;;5058963;28;20028;-79
2021/12/06 08:43:42;;;;;;;97.43;40.80;;;1.60;99.90;;;;;;5054681;28;20378;-79
2021/12/06 08:46:12;;;;;;;105.25;44.38;;;1.60;99.90;;;;;;5077622;28;20024;-79
2021/12/06 08:48:40;;;;;;;100.03;40.17;;;1.60;99.90;;;;;;5094569;28;20047;-79
2021/12/06 08:51:17;;;;;;;102.40;43.13;;;1.60;99.90;;;;;;5094775;28;20508;-79
2021/12/06 08:53:43;;;;;;;113.18;42.92;;;1.60;99.90;;;;;;5094887;28;20024;-79
2021/12/06 08:56:09;;;;;;;104.65;43.25;;;1.60;99.90;;;;;;5068362;28;20047;-79
2021/12/06 08:58:35;;;;;;;117.15;44.75;;;1.50;99.90;;;;;;5062847;28;20033;-79
2021/12/06 09:01:02;;;;;;;106.50;42.13;;;1.60;99.90;;;;;;5061441;28;20044;-79
2021/12/06 09:03:30;;;;;;;102.00;41.30;;;1.60;99.90;;;;;;5053958;28;20039;-79
2021/12/06 09:05:56;;;;;;;98.22;38.72;;;1.60;99.90;;;;;;5060386;28;20012;-79
2021/12/06 09:08:23;;;;;;;97.10;39.15;;;1.60;99.90;;;;;;5094538;28;20020;-79
2021/12/06 09:10:50;;;;;;;100.47;39.90;;;1.60;99.90;;;;;;5076223;28;20028;-79
2021/12/06 09:13:22;;;;;;;103.22;40.53;;;1.60;99.90;;;;;;5094129;28;20031;-79
2021/12/06 09:15:49;;;;;;;101.43;41.40;;;1.60;99.90;;;;;;5094243;28;20024;-79
2021/12/06 09:18:18;;;;;;;92.53;38.92;;;1.70;99.90;;;;;;5088866;28;20017;-79
2021/12/06 09:20:44;;;;;;;107.70;40.40;;;1.60;99.90;;;;;;5074029;28;20155;-79
2021/12/06 09:23:12;;;;;;;98.18;40.95;;;1.70;99.90;;;;;;5074010;28;20086;-79
2021/12/06 09:25:38;;;;;;;115.68;43.92;;;1.70;99.90;;;;;;5074099;28;20016;-79
2021/12/06 09:28:05;;;;;;;117.03;46.85;;;1.70;99.90;;;;;;5073751;28;20028;-79
2021/12/06 09:30:33;;;;;;;155.57;57.85;;;1.70;99.90;;;;;;5073838;28;20029;-79
2021/12/06 09:33:02;;;;;;;134.30;53.97;;;1.70;99.90;;;;;;5071383;28;20451;-79
2021/12/06 09:35:29;;;;;;;127.90;48.97;;;1.70;99.90;;;;;;5061342;28;20024;-79
2021/12/06 09:37:58;;;;;;;118.63;47.28;;;1.70;99.90;;;;;;5071061;28;20025;-79
2021/12/06 09:40:26;;;;;;;118.15;45.35;;;1.70;99.90;;;;;;5093668;28;20074;-79
2021/12/06 09:42:58;;;;;;;101.65;40.80;;;1.60;99.90;;;;;;5093734;28;20013;-79
2021/12/06 09:45:29;;;;;;;100.72;40.78;;;1.70;99.90;;;;;;5093914;28;20030;-79
2021/12/06 09:47:55;;;;;;;102.35;43.15;;;1.70;99.90;;;;;;5093497;28;20020;-79
2021/12/06 09:50:28;;;;;;;107.22;43.08;;;1.70;99.90;;;;;;5093465;28;20031;-79
2021/12/06 09:52:58;;;;;;;101.55;41.22;;;1.70;99.90;;;;;;5075479;28;20024;-79
2021/12/06 09:55:26;;;;;;;112.43;45.85;;;1.70;99.90;;;;;;5093499;28;20036;-80
2021/12/06 09:57:52;;;;;;;111.07;41.22;;;1.70;99.90;;;;;;5081789;28;20075;-79
2021/12/06 10:00:24;;;;;;;107.43;43.30;;;1.70;99.90;;;;;;5073135;28;20416;-79
2021/12/06 10:02:51;;;;;;;102.03;42.35;;;1.70;99.90;;;;;;5073056;28;20028;-79
2021/12/06 10:05:16;;;;;;;97.47;41.50;;;1.70;99.90;;;;;;5067815;28;20016;-79
2021/12/06 10:07:42;;;;;;;113.13;44.78;;;1.70;99.90;;;;;;5053097;28;20033;-79
2021/12/06 10:10:10;;;;;;;99.05;40.88;;;1.70;99.90;;;;;;5053058;28;20126;-79
2021/12/06 10:12:37;;;;;;;96.82;38.35;;;1.70;99.90;;;;;;5068808;28;20104;-80
2021/12/06 10:15:04;;;;;;;104.65;44.17;;;1.70;99.90;;;;;;5072206;28;20041;-79
2021/12/06 10:17:32;;;;;;;104.07;41.95;;;1.70;99.90;;;;;;5044306;28;20115;-79
2021/12/06 10:19:58;;;;;;;102.15;39.03;;;1.70;99.90;;;;;;5064308;28;20108;-79
2021/12/06 10:22:24;;;;;;;96.65;41.40;;;1.70;99.90;;;;;;5053151;28;20444;-79
2021/12/06 10:24:55;;;;;;;119.47;44.95;;;1.70;99.90;;;;;;5064707;28;20337;-80
2021/12/06 10:27:21;;;;;;;125.50;50.22;;;1.70;99.90;;;;;;5055032;28;20531;-80
2021/12/06 10:29:59;;;;;;;114.25;46.95;;;1.70;99.90;;;;;;5055480;28;20056;-79
2021/12/06 10:32:28;;;;;;;115.75;42.65;;;1.70;99.90;;;;;;5072469;28;20515;-79
2021/12/06 10:35:07;;;;;;;114.43;44.35;;;1.70;99.90;;;;;;5068836;28;20028;-80
2021/12/06 10:37:46;;;;;;;103.47;44.47;;;1.70;99.90;;;;;;5061153;28;20032;-80
2021/12/06 10:40:14;;;;;;;108.40;44.17;;;1.70;99.90;;;;;;5072657;28;20059;-80
2021/12/06 10:42:42;;;;;;;110.10;45.40;;;1.70;99.90;;;;;;5052718;28;20377;-80
2021/12/06 10:45:11;;;;;;;111.05;43.75;;;1.70;99.90;;;;;;5052472;28;20072;-79
2021/12/06 10:47:38;;;;;;;108.90;43.78;;;1.70;99.90;;;;;;5052354;28;20507;-79
2021/12/06 10:50:17;;;;;;;118.45;46.13;;;1.70;99.90;;;;;;5064264;28;20078;-79
2021/12/06 10:52:49;;;;;;;122.38;46.03;;;1.70;99.90;;;;;;5072325;28;20020;-79
2021/12/06 10:55:15;;;;;;;120.65;46.83;;;1.70;99.90;;;;;;5072430;28;20040;-79
2021/12/06 10:57:59;;;;;;;112.03;44.72;;;1.70;99.90;;;;;;5072593;28;20393;-79
2021/12/06 11:00:32;;;;;;;108.13;42.22;;;1.70;99.90;;;;;;5071729;28;20380;-79
2021/12/06 11:03:00;;;;;;;112.53;43.10;;;1.70;99.90;;;;;;5056340;28;20021;-78
2021/12/06 11:05:28;;;;;;;106.22;43.83;;;1.70;99.90;;;;;;5054384;28;20029;-78
2021/12/06 11:08:08;;;;;;;101.55;43.17;;;1.70;99.90;;;;;;5063459;28;20074;-79
2021/12/06 11:10:39;;;;;;;104.00;42.78;;;1.70;99.90;;;;;;5073426;28;20089;-79
2021/12/06 11:13:29;;;;;;;104.65;44.17;;;1.70;99.90;;;;;;5080649;28;20036;-79
2021/12/06 11:16:27;;;;;;;105.38;44.92;;;1.70;99.90;;;;;;5034400;28;20457;-79
2021/12/06 11:19:03;;;;;;;87.60;39.85;;;1.70;99.90;;;;;;5048208;28;20060;-79
2021/12/06 11:21:31;;;;;;;85.93;36.75;;;1.70;99.90;;;;;;5068260;28;20055;-79
2021/12/06 11:24:10;;;;;;;90.95;38.08;;;1.70;99.90;;;;;;5046032;28;20045;-79
2021/12/06 11:26:41;;;;;;;84.90;33.97;;;1.70;99.90;;;;;;5034102;28;20060;-79
2021/12/06 11:29:15;;;;;;;81.93;33.67;;;1.70;99.90;;;;;;5062207;28;20033;-79
2021/12/06 11:31:47;;;;;;;100.75;40.42;;;1.60;99.90;;;;;;5068507;28;20031;-79
2021/12/06 11:34:13;;;;;;;97.40;40.58;;;1.70;99.90;;;;;;5053162;28;20031;-79
2021/12/06 11:36:42;;;;;;;87.40;34.53;;;1.60;99.90;;;;;;5069892;28;20033;-79
2021/12/06 11:39:19;;;;;;;74.22;31.90;;;1.60;99.90;;;;;;5052529;28;20033;-78
2021/12/06 11:41:49;;;;;;;79.22;32.55;;;1.70;99.90;;;;;;5075140;28;20070;-79
2021/12/06 11:44:17;;;;;;;73.10;30.80;;;1.60;99.90;;;;;;5059190;28;20038;-79
2021/12/06 11:46:43;;;;;;;75.38;31.85;;;1.60;99.90;;;;;;5075626;28;20078;-79
2021/12/06 11:49:27;;;;;;;102.13;40.65;;;1.70;99.90;;;;;;5072896;28;20107;-79
2021/12/06 11:51:53;;;;;;;87.97;38.38;;;1.70;99.90;;;;;;5064322;28;20024;-79
2021/12/06 11:54:18;;;;;;;83.72;34.08;;;1.70;99.90;;;;;;5063508;28;20031;-79
2021/12/06 11:56:48;;;;;;;103.65;42.08;;;1.60;99.90;;;;;;5062057;28;20052;-79
2021/12/06 11:59:16;;;;;;;83.68;37.75;;;1.60;99.90;;;;;;5055617;28;20031;-79
2021/12/06 12:01:46;;;;;;;96.95;38.58;;;1.60;99.90;;;;;;5057322;28;20104;-79
2021/12/06 12:04:17;;;;;;;88.25;37.80;;;1.70;99.90;;;;;;5058901;28;20025;-79
2021/12/06 12:07:06;;;;;;;103.38;38.50;;;1.70;99.90;;;;;;5055734;28;20033;-79
2021/12/06 12:09:37;;;;;;;80.65;36.03;;;1.70;99.90;;;;;;5053467;28;20032;-79
2021/12/06 12:12:19;;;;;;;82.57;33.58;;;1.70;99.90;;;;;;5075020;28;20033;-79
2021/12/06 12:15:10;;;;;;;89.47;38.17;;;1.70;99.90;;;;;;5055271;28;20449;-79
2021/12/06 12:17:36;;;;;;;88.38;39.00;;;1.70;99.90;;;;;;5054618;28;20029;-78
2021/12/06 12:20:09;;;;;;;83.85;38.13;;;1.70;99.90;;;;;;5055196;28;20025;-79
2021/12/06 12:22:35;;;;;;;89.88;37.92;;;1.70;99.90;;;;;;5054968;28;20100;-79
2021/12/06 12:25:09;;;;;;;92.03;38.30;;;1.70;99.90;;;;;;5063597;28;20032;-79
2021/12/06 12:30:06;;;;;;;73.00;32.65;;;1.70;99.90;;;;;;5055063;28;20476;-79
2021/12/06 12:32:32;;;;;;;82.38;35.53;;;1.70;99.90;;;;;;5058826;28;20020;-79
2021/12/06 12:35:06;;;;;;;79.13;34.40;;;1.70;99.90;;;;;;5056329;28;20048;-79
2021/12/06 12:37:34;;;;;;;81.82;33.08;;;1.70;99.90;;;;;;5086499;28;20106;-79
2021/12/06 12:40:09;;;;;;;85.13;34.50;;;1.60;99.90;;;;;;5095222;28;20373;-79
2021/12/06 12:42:34;;;;;;;81.13;34.03;;;1.70;99.90;;;;;;5088838;28;20045;-78
2021/12/06 12:45:04;;;;;;;81.55;34.30;;;1.70;99.90;;;;;;5071771;28;20267;-79
2021/12/06 12:47:33;;;;;;;81.50;34.97;;;1.70;99.90;;;;;;5061973;28;20040;-79
2021/12/06 12:50:18;;;;;;;69.60;30.52;;;1.60;99.90;;;;;;5054787;28;20358;-78
2021/12/06 12:52:55;;;;;;;85.13;33.65;;;1.70;99.90;;;;;;5053507;28;20028;-79
2021/12/06 12:55:42;;;;;;;81.10;33.25;;;1.70;99.90;;;;;;5036812;28;20059;-79
2021/12/06 12:58:39;;;;;;;95.47;40.38;;;1.60;99.90;;;;;;5069669;28;20039;-79
2021/12/06 13:01:11;;;;;;;81.80;36.33;;;1.70;99.90;;;;;;5045941;28;20472;-79
2021/12/06 13:03:51;;;;;;;80.47;31.85;;;1.70;99.90;;;;;;5053922;28;20024;-78